Terminal Aerodrome Forecast
Issued by NWS Buffalo, NY

Home | Current Version | Previous Version | Text Only | Print | Product List | Glossary On
Versions: 1 2 3 4 5 6 7 8 9 10 11 12 13 14 15 16 17 18 19 20 21 22 23 24
000
FTUS41 KBUF 012300
TAFART
TAF
KART 012330Z 0200/0224 05012KT P6SM OVC110
     FM020600 05013KT P6SM VCSH OVC035
     FM020700 05014KT 2SM -SHSN BLSN OVC030
     FM020800 05015G21KT 2SM -SN BLSN OVC025
     FM020900 05016G22KT 1/4SM +SN BLSN OVC025
     FM022100 01012G18KT 1/4SM +SN BLSN OVC020
     FM022300 34009KT 6SM -SN OVC025=

USA.gov is the U.S. government's official web portal to all federal, state and local government web resources and services.